sensor_id;sensor_type;location;lat;lon;timestamp;temperature;humidity
1994;DHT22;998;49.906;10.908;2023-03-01T00:01:34;2.20;99.90
1994;DHT22;998;49.906;10.908;2023-03-01T00:04:02;2.30;99.90
1994;DHT22;998;49.906;10.908;2023-03-01T00:06:30;2.20;99.90
1994;DHT22;998;49.906;10.908;2023-03-01T00:08:58;2.30;99.90
1994;DHT22;998;49.906;10.908;2023-03-01T00:11:27;2.30;99.90
1994;DHT22;998;49.906;10.908;2023-03-01T00:13:56;2.10;99.90
1994;DHT22;998;49.906;10.908;2023-03-01T00:16:26;2.20;99.90
1994;DHT22;998;49.906;10.908;2023-03-01T00:18:54;2.30;99.90
1994;DHT22;998;49.906;10.908;2023-03-01T00:21:22;2.30;99.90
1994;DHT22;998;49.906;10.908;2023-03-01T00:23:51;2.20;99.90
1994;DHT22;998;49.906;10.908;2023-03-01T00:26:23;2.10;99.90
1994;DHT22;998;49.906;10.908;2023-03-01T00:28:51;2.10;99.90
1994;DHT22;998;49.906;10.908;2023-03-01T00:31:21;1.80;99.90
1994;DHT22;998;49.906;10.908;2023-03-01T00:33:52;1.70;99.90
1994;DHT22;998;49.906;10.908;2023-03-01T00:36:23;1.50;99.90
1994;DHT22;998;49.906;10.908;2023-03-01T00:38:52;1.50;99.90
1994;DHT22;998;49.906;10.908;2023-03-01T00:41:21;1.50;99.90
1994;DHT22;998;49.906;10.908;2023-03-01T00:43:50;1.60;99.90
1994;DHT22;998;49.906;10.908;2023-03-01T00:46:19;1.70;99.90
1994;DHT22;998;49.906;10.908;2023-03-01T00:48:46;1.80;99.90
1994;DHT22;998;49.906;10.908;2023-03-01T00:51:15;1.90;99.90
1994;DHT22;998;49.906;10.908;2023-03-01T00:53:43;1.90;99.90
1994;DHT22;998;49.906;10.908;2023-03-01T00:56:13;1.80;99.90
1994;DHT22;998;49.906;10.908;2023-03-01T00:58:41;1.50;99.90
1994;DHT22;998;49.906;10.908;2023-03-01T01:01:11;1.40;99.90
1994;DHT22;998;49.906;10.908;2023-03-01T01:03:46;1.30;99.90
1994;DHT22;998;49.906;10.908;2023-03-01T01:06:15;1.40;99.90
1994;DHT22;998;49.906;10.908;2023-03-01T01:08:43;1.40;99.90
1994;DHT22;998;49.906;10.908;2023-03-01T01:11:12;1.40;99.90
1994;DHT22;998;49.906;10.908;2023-03-01T01:13:40;1.70;99.90
1994;DHT22;998;49.906;10.908;2023-03-01T01:16:08;1.70;99.90
1994;DHT22;998;49.906;10.908;2023-03-01T01:18:36;1.70;99.90
1994;DHT22;998;49.906;10.908;2023-03-01T01:21:05;1.70;99.90
1994;DHT22;998;49.906;10.908;2023-03-01T01:23:33;1.70;99.90
1994;DHT22;998;49.906;10.908;2023-03-01T01:26:04;1.80;99.90
1994;DHT22;998;49.906;10.908;2023-03-01T01:28:33;1.70;99.90
1994;DHT22;998;49.906;10.908;2023-03-01T01:31:01;1.70;99.90
1994;DHT22;998;49.906;10.908;2023-03-01T01:33:28;1.70;99.90
1994;DHT22;998;49.906;10.908;2023-03-01T01:35:56;1.80;99.90
1994;DHT22;998;49.906;10.908;2023-03-01T01:38:23;1.70;99.90
1994;DHT22;998;49.906;10.908;2023-03-01T01:40:51;1.70;99.90
1994;DHT22;998;49.906;10.908;2023-03-01T01:43:22;1.80;99.90
1994;DHT22;998;49.906;10.908;2023-03-01T01:45:51;1.90;99.90
1994;DHT22;998;49.906;10.908;2023-03-01T01:48:24;1.90;99.90
1994;DHT22;998;49.906;10.908;2023-03-01T01:51:02;1.90;99.90
1994;DHT22;998;49.906;10.908;2023-03-01T01:53:29;1.90;99.90
1994;DHT22;998;49.906;10.908;2023-03-01T01:55:58;1.90;99.90
1994;DHT22;998;49.906;10.908;2023-03-01T01:58:29;1.80;99.90
1994;DHT22;998;49.906;10.908;2023-03-01T02:00:59;1.70;99.90
1994;DHT22;998;49.906;10.908;2023-03-01T02:03:30;1.40;99.90
1994;DHT22;998;49.906;10.908;2023-03-01T02:06:04;1.20;99.90
1994;DHT22;998;49.906;10.908;2023-03-01T02:08:36;1.10;99.90
1994;DHT22;998;49.906;10.908;2023-03-01T02:11:05;0.90;99.90
1994;DHT22;998;49.906;10.908;2023-03-01T02:13:34;0.90;99.90
1994;DHT22;998;49.906;10.908;2023-03-01T02:16:05;1.00;99.90
1994;DHT22;998;49.906;10.908;2023-03-01T02:18:35;1.00;99.90
1994;DHT22;998;49.906;10.908;2023-03-01T02:21:12;1.20;99.90
1994;DHT22;998;49.906;10.908;2023-03-01T02:23:42;1.30;99.90
1994;DHT22;998;49.906;10.908;2023-03-01T02:26:16;1.40;99.90
1994;DHT22;998;49.906;10.908;2023-03-01T02:28:47;1.40;99.90
1994;DHT22;998;49.906;10.908;2023-03-01T02:31:17;1.40;99.90
1994;DHT22;998;49.906;10.908;2023-03-01T02:34:03;1.40;99.90
1994;DHT22;998;49.906;10.908;2023-03-01T02:36:35;1.50;99.90
1994;DHT22;998;49.906;10.908;2023-03-01T02:39:06;1.50;99.90
1994;DHT22;998;49.906;10.908;2023-03-01T02:41:36;1.50;99.90
1994;DHT22;998;49.906;10.908;2023-03-01T02:44:05;1.50;99.90
1994;DHT22;998;49.906;10.908;2023-03-01T02:46:41;1.50;99.90
1994;DHT22;998;49.906;10.908;2023-03-01T02:49:19;1.40;99.90
1994;DHT22;998;49.906;10.908;2023-03-01T02:52:14;1.40;99.90
1994;DHT22;998;49.906;10.908;2023-03-01T02:54:48;1.50;99.90
1994;DHT22;998;49.906;10.908;2023-03-01T02:57:18;1.30;99.90
1994;DHT22;998;49.906;10.908;2023-03-01T02:59:50;1.40;99.90
1994;DHT22;998;49.906;10.908;2023-03-01T03:02:20;1.50;99.90
1994;DHT22;998;49.906;10.908;2023-03-01T03:05:03;1.50;99.90
1994;DHT22;998;49.906;10.908;2023-03-01T03:07:32;1.50;99.90
1994;DHT22;998;49.906;10.908;2023-03-01T03:10:00;1.50;99.90
1994;DHT22;998;49.906;10.908;2023-03-01T03:12:28;1.30;99.90
1994;DHT22;998;49.906;10.908;2023-03-01T03:14:56;1.30;99.90
1994;DHT22;998;49.906;10.908;2023-03-01T03:17:24;1.10;99.90
1994;DHT22;998;49.906;10.908;2023-03-01T03:19:51;1.20;99.90
1994;DHT22;998;49.906;10.908;2023-03-01T03:22:19;1.30;99.90
1994;DHT22;998;49.906;10.908;2023-03-01T03:24:46;1.20;99.90
1994;DHT22;998;49.906;10.908;2023-03-01T03:27:13;1.20;99.90
1994;DHT22;998;49.906;10.908;2023-03-01T03:29:41;1.30;99.90
1994;DHT22;998;49.906;10.908;2023-03-01T03:32:09;1.20;99.90
1994;DHT22;998;49.906;10.908;2023-03-01T03:34:37;1.20;99.90
1994;DHT22;998;49.906;10.908;2023-03-01T03:37:04;1.20;99.90
1994;DHT22;998;49.906;10.908;2023-03-01T03:39:52;1.20;99.90
1994;DHT22;998;49.906;10.908;2023-03-01T03:42:20;1.20;99.90
1994;DHT22;998;49.906;10.908;2023-03-01T03:44:48;1.10;99.90
1994;DHT22;998;49.906;10.908;2023-03-01T03:47:17;1.10;99.90
1994;DHT22;998;49.906;10.908;2023-03-01T03:49:44;1.10;99.90
1994;DHT22;998;49.906;10.908;2023-03-01T03:52:12;1.10;99.90
1994;DHT22;998;49.906;10.908;2023-03-01T03:54:40;1.00;99.90
1994;DHT22;998;49.906;10.908;2023-03-01T03:57:08;1.00;99.90
1994;DHT22;998;49.906;10.908;2023-03-01T03:59:35;1.10;99.90
1994;DHT22;998;49.906;10.908;2023-03-01T04:02:02;1.10;99.90
1994;DHT22;998;49.906;10.908;2023-03-01T04:04:31;1.10;99.90
1994;DHT22;998;49.906;10.908;2023-03-01T04:06:58;1.10;99.90
1994;DHT22;998;49.906;10.908;2023-03-01T04:09:26;1.10;99.90
1994;DHT22;998;49.906;10.908;2023-03-01T04:11:55;1.10;99.90
1994;DHT22;998;49.906;10.908;2023-03-01T04:14:23;1.00;99.90
1994;DHT22;998;49.906;10.908;2023-03-01T04:16:50;0.90;99.90
1994;DHT22;998;49.906;10.908;2023-03-01T04:19:18;0.90;99.90
1994;DHT22;998;49.906;10.908;2023-03-01T04:21:46;0.80;99.90
1994;DHT22;998;49.906;10.908;2023-03-01T04:24:14;0.70;99.90
1994;DHT22;998;49.906;10.908;2023-03-01T04:26:42;0.60;99.90
1994;DHT22;998;49.906;10.908;2023-03-01T04:29:09;0.70;99.90
1994;DHT22;998;49.906;10.908;2023-03-01T04:31:37;0.80;99.90
1994;DHT22;998;49.906;10.908;2023-03-01T04:34:04;0.80;99.90
1994;DHT22;998;49.906;10.908;2023-03-01T04:36:31;0.90;99.90
1994;DHT22;998;49.906;10.908;2023-03-01T04:39:02;0.90;99.90
1994;DHT22;998;49.906;10.908;2023-03-01T04:41:38;0.90;99.90
1994;DHT22;998;49.906;10.908;2023-03-01T04:44:05;0.90;99.90
1994;DHT22;998;49.906;10.908;2023-03-01T04:46:35;1.00;99.90
1994;DHT22;998;49.906;10.908;2023-03-01T04:49:03;1.10;99.90
1994;DHT22;998;49.906;10.908;2023-03-01T04:51:31;1.00;99.90
1994;DHT22;998;49.906;10.908;2023-03-01T04:53:58;1.10;99.90
1994;DHT22;998;49.906;10.908;2023-03-01T04:56:27;1.10;99.90
1994;DHT22;998;49.906;10.908;2023-03-01T04:58:54;1.10;99.90
1994;DHT22;998;49.906;10.908;2023-03-01T05:01:22;1.10;99.90
1994;DHT22;998;49.906;10.908;2023-03-01T05:03:51;1.00;99.90
1994;DHT22;998;49.906;10.908;2023-03-01T05:06:20;0.80;99.90
1994;DHT22;998;49.906;10.908;2023-03-01T05:08:47;0.80;99.90
1994;DHT22;998;49.906;10.908;2023-03-01T05:11:15;0.80;99.90
1994;DHT22;998;49.906;10.908;2023-03-01T05:13:44;0.70;99.90
1994;DHT22;998;49.906;10.908;2023-03-01T05:16:11;0.60;99.90
1994;DHT22;998;49.906;10.908;2023-03-01T05:18:39;0.50;99.90
1994;DHT22;998;49.906;10.908;2023-03-01T05:21:09;0.40;99.90
1994;DHT22;998;49.906;10.908;2023-03-01T05:23:37;0.40;99.90
1994;DHT22;998;49.906;10.908;2023-03-01T05:26:05;0.30;99.90
1994;DHT22;998;49.906;10.908;2023-03-01T05:28:33;0.40;99.90
1994;DHT22;998;49.906;10.908;2023-03-01T05:31:02;0.40;99.90
1994;DHT22;998;49.906;10.908;2023-03-01T05:33:35;0.50;99.90
1994;DHT22;998;49.906;10.908;2023-03-01T05:36:04;0.20;99.90
1994;DHT22;998;49.906;10.908;2023-03-01T05:38:32;0.10;99.90
1994;DHT22;998;49.906;10.908;2023-03-01T05:40:59;-0.10;99.90
1994;DHT22;998;49.906;10.908;2023-03-01T05:43:30;0.00;99.90
1994;DHT22;998;49.906;10.908;2023-03-01T05:46:01;0.00;99.90
1994;DHT22;998;49.906;10.908;2023-03-01T05:48:28;0.00;99.90
1994;DHT22;998;49.906;10.908;2023-03-01T05:50:59;0.10;99.90
1994;DHT22;998;49.906;10.908;2023-03-01T05:53:27;0.20;99.90
1994;DHT22;998;49.906;10.908;2023-03-01T05:55:54;0.20;99.90
1994;DHT22;998;49.906;10.908;2023-03-01T05:58:22;0.30;99.90
1994;DHT22;998;49.906;10.908;2023-03-01T06:00:50;0.30;99.90
1994;DHT22;998;49.906;10.908;2023-03-01T06:03:19;0.30;99.90
1994;DHT22;998;49.906;10.908;2023-03-01T06:05:46;0.20;99.90
1994;DHT22;998;49.906;10.908;2023-03-01T06:08:14;0.10;99.90
1994;DHT22;998;49.906;10.908;2023-03-01T06:10:41;0.00;99.90
1994;DHT22;998;49.906;10.908;2023-03-01T06:13:08;0.00;99.90
1994;DHT22;998;49.906;10.908;2023-03-01T06:15:36;0.00;99.90
1994;DHT22;998;49.906;10.908;2023-03-01T06:18:03;-0.20;99.90
1994;DHT22;998;49.906;10.908;2023-03-01T06:20:32;-0.10;99.90
1994;DHT22;998;49.906;10.908;2023-03-01T06:22:59;-0.30;99.90
1994;DHT22;998;49.906;10.908;2023-03-01T06:25:27;-0.30;99.90
1994;DHT22;998;49.906;10.908;2023-03-01T06:27:55;-0.40;99.90
1994;DHT22;998;49.906;10.908;2023-03-01T06:30:24;-0.30;99.90
1994;DHT22;998;49.906;10.908;2023-03-01T06:32:52;-0.10;99.90
1994;DHT22;998;49.906;10.908;2023-03-01T06:35:26;0.00;99.90
1994;DHT22;998;49.906;10.908;2023-03-01T06:37:58;0.10;99.90
1994;DHT22;998;49.906;10.908;2023-03-01T06:40:26;0.00;99.90
1994;DHT22;998;49.906;10.908;2023-03-01T06:42:53;0.10;99.90
1994;DHT22;998;49.906;10.908;2023-03-01T06:45:21;-0.10;99.90
1994;DHT22;998;49.906;10.908;2023-03-01T06:47:49;0.00;99.90
1994;DHT22;998;49.906;10.908;2023-03-01T06:50:16;0.00;99.90
1994;DHT22;998;49.906;10.908;2023-03-01T06:52:44;0.20;99.90
1994;DHT22;998;49.906;10.908;2023-03-01T06:55:13;0.20;99.90
1994;DHT22;998;49.906;10.908;2023-03-01T06:57:41;0.30;99.90
1994;DHT22;998;49.906;10.908;2023-03-01T07:00:09;0.30;99.90
1994;DHT22;998;49.906;10.908;2023-03-01T07:02:37;0.30;99.90
1994;DHT22;998;49.906;10.908;2023-03-01T07:05:05;0.30;99.90
1994;DHT22;998;49.906;10.908;2023-03-01T07:07:32;0.20;99.90
1994;DHT22;998;49.906;10.908;2023-03-01T07:10:00;0.30;99.90
1994;DHT22;998;49.906;10.908;2023-03-01T07:12:29;0.30;99.90
1994;DHT22;998;49.906;10.908;2023-03-01T07:14:56;0.40;99.90
1994;DHT22;998;49.906;10.908;2023-03-01T07:17:23;0.40;99.90
1994;DHT22;998;49.906;10.908;2023-03-01T07:19:51;0.40;99.90
1994;DHT22;998;49.906;10.908;2023-03-01T07:22:18;0.40;99.90
1994;DHT22;998;49.906;10.908;2023-03-01T07:24:46;0.50;99.90
1994;DHT22;998;49.906;10.908;2023-03-01T07:27:13;0.50;99.90
1994;DHT22;998;49.906;10.908;2023-03-01T07:29:42;0.50;99.90
1994;DHT22;998;49.906;10.908;2023-03-01T07:32:10;0.50;99.90
1994;DHT22;998;49.906;10.908;2023-03-01T07:34:37;0.60;99.90
1994;DHT22;998;49.906;10.908;2023-03-01T07:37:05;0.50;99.90
1994;DHT22;998;49.906;10.908;2023-03-01T07:39:32;0.60;99.90
1994;DHT22;998;49.906;10.908;2023-03-01T07:41:59;0.60;99.90
1994;DHT22;998;49.906;10.908;2023-03-01T07:44:27;0.70;99.90
1994;DHT22;998;49.906;10.908;2023-03-01T07:46:56;0.70;99.90
1994;DHT22;998;49.906;10.908;2023-03-01T07:49:24;0.70;99.90
1994;DHT22;998;49.906;10.908;2023-03-01T07:51:52;0.70;99.90
1994;DHT22;998;49.906;10.908;2023-03-01T07:54:19;0.70;99.90
1994;DHT22;998;49.906;10.908;2023-03-01T07:56:46;0.70;99.90
1994;DHT22;998;49.906;10.908;2023-03-01T07:59:14;0.70;99.90
1994;DHT22;998;49.906;10.908;2023-03-01T08:01:41;0.80;99.90
1994;DHT22;998;49.906;10.908;2023-03-01T08:04:09;0.90;99.90
1994;DHT22;998;49.906;10.908;2023-03-01T08:06:37;0.90;99.90
1994;DHT22;998;49.906;10.908;2023-03-01T08:09:04;0.90;99.90
1994;DHT22;998;49.906;10.908;2023-03-01T08:11:32;0.90;99.90
1994;DHT22;998;49.906;10.908;2023-03-01T08:13:59;1.00;99.90
1994;DHT22;998;49.906;10.908;2023-03-01T08:16:27;1.00;99.90
1994;DHT22;998;49.906;10.908;2023-03-01T08:18:54;1.00;99.90
1994;DHT22;998;49.906;10.908;2023-03-01T08:21:23;1.10;99.90
1994;DHT22;998;49.906;10.908;2023-03-01T08:23:50;1.10;99.90
1994;DHT22;998;49.906;10.908;2023-03-01T08:26:19;1.10;99.90
1994;DHT22;998;49.906;10.908;2023-03-01T08:28:48;1.10;99.90
1994;DHT22;998;49.906;10.908;2023-03-01T08:31:18;1.10;99.90
1994;DHT22;998;49.906;10.908;2023-03-01T08:33:45;1.10;99.90
1994;DHT22;998;49.906;10.908;2023-03-01T08:36:16;1.10;99.90
1994;DHT22;998;49.906;10.908;2023-03-01T08:38:45;1.10;99.90
1994;DHT22;998;49.906;10.908;2023-03-01T08:41:13;1.20;99.90
1994;DHT22;998;49.906;10.908;2023-03-01T08:43:40;1.20;99.90
1994;DHT22;998;49.906;10.908;2023-03-01T08:46:08;1.30;99.90
1994;DHT22;998;49.906;10.908;2023-03-01T08:48:35;1.30;99.90
1994;DHT22;998;49.906;10.908;2023-03-01T08:51:14;1.40;99.90
1994;DHT22;998;49.906;10.908;2023-03-01T08:53:42;1.40;99.90
1994;DHT22;998;49.906;10.908;2023-03-01T08:56:11;1.50;99.90
1994;DHT22;998;49.906;10.908;2023-03-01T08:58:39;1.40;99.90
1994;DHT22;998;49.906;10.908;2023-03-01T09:01:10;1.40;99.90
1994;DHT22;998;49.906;10.908;2023-03-01T09:03:37;1.60;99.90
1994;DHT22;998;49.906;10.908;2023-03-01T09:06:05;1.70;99.90
1994;DHT22;998;49.906;10.908;2023-03-01T09:08:35;1.70;99.90
1994;DHT22;998;49.906;10.908;2023-03-01T09:11:03;1.70;99.90
1994;DHT22;998;49.906;10.908;2023-03-01T09:13:32;1.80;99.90
1994;DHT22;998;49.906;10.908;2023-03-01T09:16:00;2.00;99.90
1994;DHT22;998;49.906;10.908;2023-03-01T09:18:27;2.10;99.90
1994;DHT22;998;49.906;10.908;2023-03-01T09:21:01;2.20;99.90
1994;DHT22;998;49.906;10.908;2023-03-01T09:23:32;2.20;99.90
1994;DHT22;998;49.906;10.908;2023-03-01T09:25:59;2.30;99.90
1994;DHT22;998;49.906;10.908;2023-03-01T09:28:26;2.40;99.90
1994;DHT22;998;49.906;10.908;2023-03-01T09:30:57;2.40;99.90
1994;DHT22;998;49.906;10.908;2023-03-01T09:33:24;2.50;99.90
1994;DHT22;998;49.906;10.908;2023-03-01T09:35:56;2.60;99.90
1994;DHT22;998;49.906;10.908;2023-03-01T09:38:23;2.60;99.90
1994;DHT22;998;49.906;10.908;2023-03-01T09:40:50;2.60;99.90
1994;DHT22;998;49.906;10.908;2023-03-01T09:43:21;2.70;99.90
1994;DHT22;998;49.906;10.908;2023-03-01T09:45:55;2.80;99.90
1994;DHT22;998;49.906;10.908;2023-03-01T09:48:26;2.90;99.90
1994;DHT22;998;49.906;10.908;2023-03-01T09:50:53;2.90;99.90
1994;DHT22;998;49.906;10.908;2023-03-01T09:53:22;3.00;99.90
1994;DHT22;998;49.906;10.908;2023-03-01T09:55:53;3.00;99.90
1994;DHT22;998;49.906;10.908;2023-03-01T09:58:34;3.20;99.90
1994;DHT22;998;49.906;10.908;2023-03-01T10:01:11;3.20;99.90
1994;DHT22;998;49.906;10.908;2023-03-01T10:03:47;3.20;99.90
1994;DHT22;998;49.906;10.908;2023-03-01T10:06:21;3.20;99.90
1994;DHT22;998;49.906;10.908;2023-03-01T10:08:54;3.30;99.90
1994;DHT22;998;49.906;10.908;2023-03-01T10:11:24;3.50;99.90
1994;DHT22;998;49.906;10.908;2023-03-01T10:13:58;3.50;99.90
1994;DHT22;998;49.906;10.908;2023-03-01T10:16:33;3.60;99.90
1994;DHT22;998;49.906;10.908;2023-03-01T10:19:03;3.70;99.90
1994;DHT22;998;49.906;10.908;2023-03-01T10:21:31;3.80;99.90
1994;DHT22;998;49.906;10.908;2023-03-01T10:24:10;3.90;99.90
1994;DHT22;998;49.906;10.908;2023-03-01T10:26:48;4.00;99.90
1994;DHT22;998;49.906;10.908;2023-03-01T10:29:23;4.20;99.90
1994;DHT22;998;49.906;10.908;2023-03-01T10:31:53;4.30;99.90
1994;DHT22;998;49.906;10.908;2023-03-01T10:34:25;4.30;99.90
1994;DHT22;998;49.906;10.908;2023-03-01T10:36:57;4.40;99.90
1994;DHT22;998;49.906;10.908;2023-03-01T10:39:26;4.60;99.90
1994;DHT22;998;49.906;10.908;2023-03-01T10:41:58;4.60;99.90
1994;DHT22;998;49.906;10.908;2023-03-01T10:44:43;4.80;99.90
1994;DHT22;998;49.906;10.908;2023-03-01T10:47:20;5.00;99.90
1994;DHT22;998;49.906;10.908;2023-03-01T10:49:56;5.10;99.90
1994;DHT22;998;49.906;10.908;2023-03-01T10:52:25;5.20;99.90
1994;DHT22;998;49.906;10.908;2023-03-01T10:54:55;5.30;99.90
1994;DHT22;998;49.906;10.908;2023-03-01T10:57:33;5.50;99.90
1994;DHT22;998;49.906;10.908;2023-03-01T11:00:16;6.00;99.90
1994;DHT22;998;49.906;10.908;2023-03-01T11:02:47;6.60;99.90
1994;DHT22;998;49.906;10.908;2023-03-01T11:05:20;7.30;99.30
1994;DHT22;998;49.906;10.908;2023-03-01T11:07:51;8.00;98.00
1994;DHT22;998;49.906;10.908;2023-03-01T11:10:20;8.50;94.40
1994;DHT22;998;49.906;10.908;2023-03-01T11:12:47;8.80;92.40
1994;DHT22;998;49.906;10.908;2023-03-01T11:15:24;9.60;94.20
1994;DHT22;998;49.906;10.908;2023-03-01T11:17:53;10.40;92.50
1994;DHT22;998;49.906;10.908;2023-03-01T11:20:25;11.00;90.00
1994;DHT22;998;49.906;10.908;2023-03-01T11:22:55;11.60;89.40
1994;DHT22;998;49.906;10.908;2023-03-01T11:25:26;12.10;82.60
1994;DHT22;998;49.906;10.908;2023-03-01T11:27:54;12.30;82.10
1994;DHT22;998;49.906;10.908;2023-03-01T11:30:25;12.50;76.50
1994;DHT22;998;49.906;10.908;2023-03-01T11:33:05;12.80;78.60
1994;DHT22;998;49.906;10.908;2023-03-01T11:35:37;13.00;76.70
1994;DHT22;998;49.906;10.908;2023-03-01T11:38:16;13.30;70.60
1994;DHT22;998;49.906;10.908;2023-03-01T11:40:49;13.40;71.50
1994;DHT22;998;49.906;10.908;2023-03-01T11:43:23;13.50;71.90
1994;DHT22;998;49.906;10.908;2023-03-01T11:46:23;13.90;69.30
1994;DHT22;998;49.906;10.908;2023-03-01T11:49:03;13.80;64.10
1994;DHT22;998;49.906;10.908;2023-03-01T11:51:41;13.50;69.00
1994;DHT22;998;49.906;10.908;2023-03-01T11:54:20;13.70;69.30
1994;DHT22;998;49.906;10.908;2023-03-01T11:56:54;14.10;66.30
1994;DHT22;998;49.906;10.908;2023-03-01T11:59:39;14.40;66.70
1994;DHT22;998;49.906;10.908;2023-03-01T12:02:25;14.40;61.50
1994;DHT22;998;49.906;10.908;2023-03-01T12:05:41;14.50;63.90
1994;DHT22;998;49.906;10.908;2023-03-01T12:08:16;14.70;63.70
1994;DHT22;998;49.906;10.908;2023-03-01T12:10:54;14.70;64.50
1994;DHT22;998;49.906;10.908;2023-03-01T12:16:34;14.90;64.00
1994;DHT22;998;49.906;10.908;2023-03-01T12:19:18;15.00;62.20
1994;DHT22;998;49.906;10.908;2023-03-01T12:24:56;14.90;59.60
1994;DHT22;998;49.906;10.908;2023-03-01T12:27:41;14.90;61.40
1994;DHT22;998;49.906;10.908;2023-03-01T12:30:31;15.00;58.90
1994;DHT22;998;49.906;10.908;2023-03-01T12:33:11;15.10;60.50
1994;DHT22;998;49.906;10.908;2023-03-01T12:36:04;15.10;60.80
1994;DHT22;998;49.906;10.908;2023-03-01T12:38:41;15.10;60.50
1994;DHT22;998;49.906;10.908;2023-03-01T12:41:43;15.20;60.90
1994;DHT22;998;49.906;10.908;2023-03-01T12:44:20;15.20;59.50
1994;DHT22;998;49.906;10.908;2023-03-01T12:47:06;15.40;58.80
1994;DHT22;998;49.906;10.908;2023-03-01T12:49:41;15.30;57.50
1994;DHT22;998;49.906;10.908;2023-03-01T12:52:14;15.30;59.30
1994;DHT22;998;49.906;10.908;2023-03-01T12:54:45;15.40;59.50
1994;DHT22;998;49.906;10.908;2023-03-01T12:57:21;15.50;58.70
1994;DHT22;998;49.906;10.908;2023-03-01T13:00:00;15.40;58.00
1994;DHT22;998;49.906;10.908;2023-03-01T13:02:33;15.10;57.00
1994;DHT22;998;49.906;10.908;2023-03-01T13:05:14;15.10;58.50
1994;DHT22;998;49.906;10.908;2023-03-01T13:07:52;15.10;59.30
1994;DHT22;998;49.906;10.908;2023-03-01T13:10:28;15.10;57.60
1994;DHT22;998;49.906;10.908;2023-03-01T13:13:12;15.20;59.00
1994;DHT22;998;49.906;10.908;2023-03-01T13:15:39;15.30;59.30
1994;DHT22;998;49.906;10.908;2023-03-01T13:18:28;15.30;58.00
1994;DHT22;998;49.906;10.908;2023-03-01T13:20:58;15.20;58.70
1994;DHT22;998;49.906;10.908;2023-03-01T13:23:28;15.20;58.10
1994;DHT22;998;49.906;10.908;2023-03-01T13:26:07;15.10;58.60
1994;DHT22;998;49.906;10.908;2023-03-01T13:28:46;15.10;57.20
1994;DHT22;998;49.906;10.908;2023-03-01T13:34:59;15.20;58.30
1994;DHT22;998;49.906;10.908;2023-03-01T13:37:37;15.20;58.50
1994;DHT22;998;49.906;10.908;2023-03-01T13:43:35;15.00;56.60
1994;DHT22;998;49.906;10.908;2023-03-01T13:46:08;14.80;58.30
1994;DHT22;998;49.906;10.908;2023-03-01T13:48:38;14.90;59.00
1994;DHT22;998;49.906;10.908;2023-03-01T13:51:08;14.70;56.80
1994;DHT22;998;49.906;10.908;2023-03-01T13:53:39;14.50;57.10
1994;DHT22;998;49.906;10.908;2023-03-01T13:56:09;14.20;57.90
1994;DHT22;998;49.906;10.908;2023-03-01T13:58:49;14.00;57.70
1994;DHT22;998;49.906;10.908;2023-03-01T14:01:25;14.10;58.80
1994;DHT22;998;49.906;10.908;2023-03-01T14:03:52;14.40;59.90
1994;DHT22;998;49.906;10.908;2023-03-01T14:06:21;14.50;59.60
1994;DHT22;998;49.906;10.908;2023-03-01T14:08:50;14.60;57.80
1994;DHT22;998;49.906;10.908;2023-03-01T14:11:48;14.50;58.40
1994;DHT22;998;49.906;10.908;2023-03-01T14:14:38;14.30;58.20
1994;DHT22;998;49.906;10.908;2023-03-01T14:17:42;14.20;59.00
1994;DHT22;998;49.906;10.908;2023-03-01T14:20:14;13.90;57.20
1994;DHT22;998;49.906;10.908;2023-03-01T14:22:43;13.90;59.20
1994;DHT22;998;49.906;10.908;2023-03-01T14:25:26;14.00;59.10
1994;DHT22;998;49.906;10.908;2023-03-01T14:28:03;14.10;60.20
1994;DHT22;998;49.906;10.908;2023-03-01T14:30:34;14.10;58.70
1994;DHT22;998;49.906;10.908;2023-03-01T14:33:04;13.90;58.40
1994;DHT22;998;49.906;10.908;2023-03-01T14:35:34;14.00;59.50
1994;DHT22;998;49.906;10.908;2023-03-01T14:38:01;13.90;59.30
1994;DHT22;998;49.906;10.908;2023-03-01T14:40:30;14.00;58.50
1994;DHT22;998;49.906;10.908;2023-03-01T14:42:59;13.80;58.50
1994;DHT22;998;49.906;10.908;2023-03-01T14:45:28;13.70;60.30
1994;DHT22;998;49.906;10.908;2023-03-01T14:47:59;13.90;60.40
1994;DHT22;998;49.906;10.908;2023-03-01T14:50:28;13.80;59.20
1994;DHT22;998;49.906;10.908;2023-03-01T14:52:58;13.70;58.20
1994;DHT22;998;49.906;10.908;2023-03-01T14:55:28;13.60;59.70
1994;DHT22;998;49.906;10.908;2023-03-01T14:57:56;13.40;59.80
1994;DHT22;998;49.906;10.908;2023-03-01T15:00:25;13.50;59.30
1994;DHT22;998;49.906;10.908;2023-03-01T15:02:54;13.50;60.00
1994;DHT22;998;49.906;10.908;2023-03-01T15:05:26;13.60;60.30
1994;DHT22;998;49.906;10.908;2023-03-01T15:07:55;13.60;60.70
1994;DHT22;998;49.906;10.908;2023-03-01T15:10:25;13.40;60.60
1994;DHT22;998;49.906;10.908;2023-03-01T15:12:53;12.90;59.10
1994;DHT22;998;49.906;10.908;2023-03-01T15:15:36;12.90;60.00
1994;DHT22;998;49.906;10.908;2023-03-01T15:18:13;12.90;60.00
1994;DHT22;998;49.906;10.908;2023-03-01T15:20:42;13.00;61.00
1994;DHT22;998;49.906;10.908;2023-03-01T15:23:20;12.90;60.40
1994;DHT22;998;49.906;10.908;2023-03-01T15:25:48;12.90;60.50
1994;DHT22;998;49.906;10.908;2023-03-01T15:28:25;13.00;61.50
1994;DHT22;998;49.906;10.908;2023-03-01T15:30:57;12.80;61.20
1994;DHT22;998;49.906;10.908;2023-03-01T15:33:33;12.80;60.30
1994;DHT22;998;49.906;10.908;2023-03-01T15:36:31;12.70;62.50
1994;DHT22;998;49.906;10.908;2023-03-01T15:38:59;12.30;60.40
1994;DHT22;998;49.906;10.908;2023-03-01T15:41:28;12.20;61.80
1994;DHT22;998;49.906;10.908;2023-03-01T15:43:58;12.40;62.20
1994;DHT22;998;49.906;10.908;2023-03-01T15:46:28;12.30;61.80
1994;DHT22;998;49.906;10.908;2023-03-01T15:48:59;12.30;63.50
1994;DHT22;998;49.906;10.908;2023-03-01T15:51:33;12.10;63.80
1994;DHT22;998;49.906;10.908;2023-03-01T15:54:04;12.00;63.00
1994;DHT22;998;49.906;10.908;2023-03-01T15:56:32;12.00;63.10
1994;DHT22;998;49.906;10.908;2023-03-01T15:59:01;11.70;63.10
1994;DHT22;998;49.906;10.908;2023-03-01T16:01:29;11.50;64.00
1994;DHT22;998;49.906;10.908;2023-03-01T16:03:56;11.30;63.70
1994;DHT22;998;49.906;10.908;2023-03-01T16:06:24;11.00;64.60
1994;DHT22;998;49.906;10.908;2023-03-01T16:08:54;10.80;65.40
1994;DHT22;998;49.906;10.908;2023-03-01T16:11:22;10.60;65.90
1994;DHT22;998;49.906;10.908;2023-03-01T16:13:49;10.70;66.60
1994;DHT22;998;49.906;10.908;2023-03-01T16:16:16;10.70;66.70
1994;DHT22;998;49.906;10.908;2023-03-01T16:18:45;10.60;67.10
1994;DHT22;998;49.906;10.908;2023-03-01T16:21:20;10.60;67.70
1994;DHT22;998;49.906;10.908;2023-03-01T16:23:47;10.20;69.10
1994;DHT22;998;49.906;10.908;2023-03-01T16:26:18;10.30;69.30
1994;DHT22;998;49.906;10.908;2023-03-01T16:28:45;10.40;70.40
1994;DHT22;998;49.906;10.908;2023-03-01T16:31:16;10.40;71.80
1994;DHT22;998;49.906;10.908;2023-03-01T16:33:43;10.20;71.20
1994;DHT22;998;49.906;10.908;2023-03-01T16:36:16;10.20;71.90
1994;DHT22;998;49.906;10.908;2023-03-01T16:38:43;10.10;72.50
1994;DHT22;998;49.906;10.908;2023-03-01T16:41:12;9.90;73.40
1994;DHT22;998;49.906;10.908;2023-03-01T16:43:43;9.70;74.10
1994;DHT22;998;49.906;10.908;2023-03-01T16:46:12;9.70;75.60
1994;DHT22;998;49.906;10.908;2023-03-01T16:48:39;9.70;76.90
1994;DHT22;998;49.906;10.908;2023-03-01T16:51:06;9.60;77.00